createdAt,value
2022-10-17T00:00:06.884Z,13.43
2022-10-17T00:05:13.444Z,11.10
2022-10-17T00:10:18.998Z,17.70
2022-10-17T00:15:24.761Z,12.67
2022-10-17T00:20:31.771Z,11.10
2022-10-17T00:25:41.914Z,14.00
2022-10-17T00:30:47.499Z,15.93
2022-10-17T00:35:52.638Z,12.82
2022-10-17T00:40:58.157Z,11.63
2022-10-17T00:46:03.456Z,12.18
2022-10-17T00:51:08.976Z,13.68
2022-10-17T00:56:15.307Z,17.65
2022-10-17T01:01:21.780Z,11.73
2022-10-17T01:06:27.198Z,13.30
2022-10-17T01:11:39.944Z,23.83
2022-10-17T01:16:45.656Z,13.90
2022-10-17T01:21:59.424Z,15.77
2022-10-17T01:27:16.059Z,12.98
2022-10-17T01:32:26.373Z,14.27
2022-10-17T01:37:35.803Z,23.42
2022-10-17T01:42:59.140Z,18.98
2022-10-17T01:48:07.094Z,15.43
2022-10-17T01:53:16.628Z,12.63
2022-10-17T01:58:22.094Z,15.48
2022-10-17T02:03:28.439Z,14.27
2022-10-17T02:08:45.337Z,15.23
2022-10-17T02:13:59.486Z,22.30
2022-10-17T02:19:10.617Z,13.60
2022-10-17T02:24:36.186Z,14.82
2022-10-17T02:29:52.239Z,12.60
2022-10-17T02:34:58.817Z,14.05
2022-10-17T02:40:06.267Z,19.98
2022-10-17T02:45:17.076Z,17.60
2022-10-17T02:50:30.245Z,22.67
2022-10-17T02:55:42.003Z,18.58
2022-10-17T03:00:49.770Z,15.15
2022-10-17T03:05:55.745Z,20.40
2022-10-17T03:11:03.891Z,18.52
2022-10-17T03:16:11.054Z,16.23
2022-10-17T03:21:17.144Z,17.15
2022-10-17T03:31:30.015Z,14.23
2022-10-17T03:36:40.503Z,16.23
2022-10-17T03:41:45.913Z,13.43
2022-10-17T03:46:52.816Z,11.73
2022-10-17T03:57:06.694Z,13.32
2022-10-17T04:02:14.943Z,14.02
2022-10-17T04:07:21.553Z,11.57
2022-10-17T04:17:37.238Z,11.63
2022-10-17T04:22:44.939Z,14.45
2022-10-17T04:27:52.486Z,10.63
2022-10-17T04:32:58.171Z,9.90
2022-10-17T04:38:05.896Z,12.85
2022-10-17T04:43:11.303Z,12.20
2022-10-17T04:53:21.641Z,8.57
2022-10-17T04:58:27.126Z,10.50
2022-10-17T05:03:36.676Z,12.65
2022-10-17T05:08:43.000Z,6.68
2022-10-17T05:13:52.816Z,11.75
2022-10-17T05:18:59.726Z,10.80
2022-10-17T05:24:11.224Z,13.38
2022-10-17T05:29:17.743Z,10.20
2022-10-17T05:34:28.393Z,8.48
2022-10-17T05:39:33.816Z,11.90
2022-10-17T05:44:40.925Z,12.50
2022-10-17T05:49:51.521Z,8.93
2022-10-17T05:55:03.927Z,7.78
2022-10-17T06:00:19.174Z,12.85
2022-10-17T06:05:33.668Z,8.20
2022-10-17T06:10:39.079Z,12.30
2022-10-17T06:15:44.267Z,7.93
2022-10-17T06:20:53.351Z,9.60
2022-10-17T06:26:03.338Z,8.73
2022-10-17T06:31:10.437Z,8.85
2022-10-17T06:36:16.580Z,10.23
2022-10-17T06:41:23.098Z,9.43
2022-10-17T06:46:31.248Z,12.18
2022-10-17T06:51:39.698Z,13.77
2022-10-17T06:56:48.093Z,8.38
2022-10-17T07:02:25.562Z,7.97
2022-10-17T07:07:38.864Z,11.63
2022-10-17T07:12:47.054Z,9.80
2022-10-17T07:17:52.665Z,10.45
2022-10-17T07:28:03.556Z,7.60
2022-10-17T07:33:10.393Z,8.57
2022-10-17T07:38:16.228Z,11.70
2022-10-17T07:43:21.603Z,9.82
2022-10-17T07:53:32.489Z,9.43
2022-10-17T07:58:38.272Z,12.63
2022-10-17T08:03:46.552Z,8.70
2022-10-17T08:08:54.911Z,8.75
2022-10-17T08:14:00.344Z,14.40
2022-10-17T08:19:06.065Z,12.52
2022-10-17T08:24:11.996Z,8.02
2022-10-17T08:29:17.856Z,12.40
2022-10-17T08:34:27.020Z,13.15
2022-10-17T08:39:32.177Z,10.25
2022-10-17T08:44:46.312Z,9.23
2022-10-17T08:49:57.140Z,8.95
2022-10-17T08:55:02.643Z,9.63
2022-10-17T09:00:19.398Z,12.93
2022-10-17T09:05:34.577Z,11.30
2022-10-17T09:10:44.569Z,12.37
2022-10-17T09:16:13.977Z,12.90
2022-10-17T09:21:27.926Z,8.30
2022-10-17T09:26:33.317Z,8.38
2022-10-17T09:31:45.928Z,13.55
2022-10-17T09:36:51.344Z,7.90
2022-10-17T09:41:57.263Z,9.15
2022-10-17T09:47:02.865Z,14.25
2022-10-17T09:57:14.251Z,12.68
2022-10-17T10:02:21.175Z,13.00
2022-10-17T10:07:29.221Z,9.07
2022-10-17T10:12:36.671Z,8.05
2022-10-17T10:17:44.078Z,13.45
2022-10-17T10:23:07.160Z,13.00
2022-10-17T10:28:13.398Z,12.73
2022-10-17T10:33:18.490Z,14.45
2022-10-17T10:38:24.065Z,13.33
2022-10-17T10:48:49.414Z,10.50
2022-10-17T10:53:58.275Z,16.23
2022-10-17T10:59:06.620Z,16.88
2022-10-17T11:04:18.231Z,16.30
2022-10-17T11:09:28.820Z,14.82
2022-10-17T11:14:37.134Z,15.30
2022-10-17T11:24:58.418Z,20.20
2022-10-17T11:30:05.252Z,19.50
2022-10-17T11:35:31.159Z,13.95
2022-10-17T11:40:38.474Z,16.45
2022-10-17T11:45:58.069Z,9.55
2022-10-17T11:56:54.119Z,26.50
2022-10-17T12:02:01.737Z,22.98
2022-10-17T12:07:20.117Z,27.27
2022-10-17T12:12:30.343Z,24.88
2022-10-17T12:17:40.580Z,28.83
2022-10-17T12:23:15.613Z,22.02
2022-10-17T12:28:40.445Z,27.80
2022-10-17T12:38:54.191Z,26.00
2022-10-17T12:44:05.350Z,27.95
2022-10-17T12:49:24.471Z,25.17
2022-10-17T12:54:37.977Z,14.52
2022-10-17T12:59:57.968Z,28.02
2022-10-17T13:05:14.219Z,32.95
2022-10-17T13:10:22.329Z,29.80
2022-10-17T13:15:27.915Z,34.85
2022-10-17T13:20:34.142Z,33.72
2022-10-17T13:25:39.739Z,32.63
2022-10-17T13:36:06.179Z,35.88
2022-10-17T13:46:43.627Z,37.60
2022-10-17T13:51:50.366Z,38.13
2022-10-17T13:56:59.261Z,37.15
2022-10-17T14:02:04.917Z,38.65
2022-10-17T14:12:30.527Z,39.25
2022-10-17T14:17:37.223Z,41.42
2022-10-17T14:22:47.045Z,40.85
2022-10-17T14:28:04.748Z,43.25
2022-10-17T14:33:15.349Z,43.92
2022-10-17T14:38:22.464Z,43.97
2022-10-17T14:43:28.824Z,54.95
2022-10-17T14:48:34.288Z,47.17
2022-10-17T14:53:40.680Z,47.40
2022-10-17T14:58:45.991Z,46.03
2022-10-17T15:03:51.347Z,44.90
2022-10-17T15:08:59.704Z,41.50
2022-10-17T15:14:10.478Z,43.58
2022-10-17T15:19:16.528Z,42.75
2022-10-17T15:24:22.713Z,40.53
2022-10-17T15:29:27.819Z,39.55
2022-10-17T15:34:33.086Z,39.07
2022-10-17T15:39:38.364Z,39.13
2022-10-17T15:44:45.728Z,39.97
2022-10-17T15:49:50.733Z,35.95
2022-10-17T15:54:57.454Z,36.05
2022-10-17T16:00:05.829Z,20.40
2022-10-17T16:05:31.858Z,27.63
2022-10-17T16:10:37.320Z,20.63
2022-10-17T16:15:45.996Z,27.52
2022-10-17T16:20:54.358Z,30.88
2022-10-17T16:25:59.700Z,29.20
2022-10-17T16:31:05.439Z,26.38
2022-10-17T16:41:22.929Z,26.42
2022-10-17T16:46:36.170Z,23.17
2022-10-17T16:51:44.596Z,20.98
2022-10-17T16:56:51.676Z,22.77
2022-10-17T17:01:57.607Z,21.63
2022-10-17T17:07:03.053Z,23.23
2022-10-17T17:12:27.852Z,21.37
2022-10-17T17:17:48.760Z,22.27
2022-10-17T17:22:54.597Z,22.73
2022-10-17T17:27:59.711Z,20.73
2022-10-17T17:33:04.828Z,19.13
2022-10-17T17:38:10.369Z,16.80
2022-10-17T17:43:15.770Z,25.15
2022-10-17T17:48:21.537Z,17.63
2022-10-17T17:53:26.979Z,24.92
2022-10-17T17:58:32.483Z,28.52
2022-10-17T18:03:37.608Z,27.38
2022-10-17T18:08:42.632Z,29.20
2022-10-17T18:14:24.994Z,22.75
2022-10-17T18:19:30.442Z,19.35
2022-10-17T18:29:42.837Z,36.55
2022-10-17T18:34:48.440Z,20.23
2022-10-17T18:39:56.632Z,26.45
2022-10-17T18:45:02.368Z,33.45
2022-10-17T18:50:08.128Z,25.50
2022-10-17T18:55:13.592Z,28.00
2022-10-17T19:00:22.641Z,27.75
2022-10-17T19:05:28.374Z,36.28
2022-10-17T19:10:38.896Z,29.38
2022-10-17T19:15:44.409Z,32.67
2022-10-17T19:20:49.468Z,31.90
2022-10-17T19:25:55.944Z,31.80
2022-10-17T19:31:08.497Z,28.38
2022-10-17T19:36:14.077Z,29.20
2022-10-17T19:46:25.721Z,30.85
2022-10-17T19:51:31.198Z,29.35
2022-10-17T19:56:41.608Z,19.40
2022-10-17T20:01:47.226Z,28.55
2022-10-17T20:12:06.327Z,26.67
2022-10-17T20:17:11.496Z,26.98
2022-10-17T20:22:16.886Z,23.40
2022-10-17T20:27:25.512Z,24.15
2022-10-17T20:32:39.432Z,24.13
2022-10-17T20:37:45.292Z,12.43
2022-10-17T20:42:50.527Z,12.03
2022-10-17T20:47:56.057Z,19.48
2022-10-17T20:53:17.903Z,23.70
2022-10-17T20:58:26.997Z,19.88
2022-10-17T21:03:32.550Z,14.30
2022-10-17T21:08:43.721Z,12.60
2022-10-17T21:13:50.753Z,16.88
2022-10-17T21:18:57.549Z,10.63
2022-10-17T21:24:04.982Z,13.85
2022-10-17T21:29:10.369Z,17.90
2022-10-17T21:34:16.642Z,18.00
2022-10-17T21:39:21.913Z,18.50
2022-10-17T21:44:28.604Z,13.43
2022-10-17T21:49:35.162Z,16.92
2022-10-17T21:54:40.504Z,10.35
2022-10-17T21:59:45.865Z,13.07
2022-10-17T22:04:51.182Z,13.20
2022-10-17T22:09:56.539Z,12.77
2022-10-17T22:15:01.698Z,18.48
2022-10-17T22:20:07.245Z,20.23
2022-10-17T22:25:12.544Z,19.48
2022-10-17T22:30:18.528Z,20.43
2022-10-17T22:35:23.633Z,12.15
2022-10-17T22:40:28.718Z,13.07
2022-10-17T22:45:34.194Z,19.20
2022-10-17T22:50:43.105Z,21.45
2022-10-17T22:55:52.665Z,12.23
2022-10-17T23:00:58.561Z,24.08
2022-10-17T23:11:08.827Z,20.80
2022-10-17T23:16:14.290Z,23.98
2022-10-17T23:21:19.374Z,20.67
2022-10-17T23:26:24.732Z,15.57
2022-10-17T23:31:30.513Z,19.57
2022-10-17T23:36:35.734Z,16.35
2022-10-17T23:41:41.636Z,15.33
2022-10-17T23:46:47.297Z,13.40
2022-10-17T23:51:52.572Z,18.00
2022-10-17T23:56:58.193Z,19.30
